sensor_id;sensor_type;location;lat;lon;timestamp;P1;durP1;ratioP1;P2;durP2;ratioP2
8580;SDS011;4328;48.622;9.230;2023-02-18T00:01:55;1.00;;;1.00;;
8580;SDS011;4328;48.622;9.230;2023-02-18T00:04:22;0.90;;;0.90;;
8580;SDS011;4328;48.622;9.230;2023-02-18T00:06:48;0.90;;;0.90;;
8580;SDS011;4328;48.622;9.230;2023-02-18T00:09:15;1.00;;;1.00;;
8580;SDS011;4328;48.622;9.230;2023-02-18T00:11:41;1.00;;;1.00;;
8580;SDS011;4328;48.622;9.230;2023-02-18T00:14:11;1.00;;;1.00;;
8580;SDS011;4328;48.622;9.230;2023-02-18T00:16:38;1.07;;;0.97;;
8580;SDS011;4328;48.622;9.230;2023-02-18T00:19:06;0.97;;;0.97;;
8580;SDS011;4328;48.622;9.230;2023-02-18T00:21:33;1.10;;;1.10;;
8580;SDS011;4328;48.622;9.230;2023-02-18T00:24:01;1.00;;;1.00;;
8580;SDS011;4328;48.622;9.230;2023-02-18T00:26:27;1.13;;;1.03;;
8580;SDS011;4328;48.622;9.230;2023-02-18T00:28:54;1.87;;;0.97;;
8580;SDS011;4328;48.622;9.230;2023-02-18T00:31:23;1.03;;;0.97;;
8580;SDS011;4328;48.622;9.230;2023-02-18T00:33:49;1.20;;;1.20;;
8580;SDS011;4328;48.622;9.230;2023-02-18T00:36:16;1.10;;;1.10;;
8580;SDS011;4328;48.622;9.230;2023-02-18T00:38:44;1.00;;;1.00;;
8580;SDS011;4328;48.622;9.230;2023-02-18T00:41:10;1.20;;;1.10;;
8580;SDS011;4328;48.622;9.230;2023-02-18T00:43:37;1.40;;;1.30;;
8580;SDS011;4328;48.622;9.230;2023-02-18T00:46:03;1.37;;;1.37;;
8580;SDS011;4328;48.622;9.230;2023-02-18T00:48:31;1.57;;;1.47;;
8580;SDS011;4328;48.622;9.230;2023-02-18T00:50:58;1.27;;;1.17;;
8580;SDS011;4328;48.622;9.230;2023-02-18T00:53:25;1.37;;;1.27;;
8580;SDS011;4328;48.622;9.230;2023-02-18T00:55:52;1.47;;;1.20;;
8580;SDS011;4328;48.622;9.230;2023-02-18T00:58:18;1.30;;;1.20;;
8580;SDS011;4328;48.622;9.230;2023-02-18T01:00:44;1.20;;;1.10;;
8580;SDS011;4328;48.622;9.230;2023-02-18T01:03:11;1.40;;;1.30;;
8580;SDS011;4328;48.622;9.230;2023-02-18T01:05:39;1.50;;;1.40;;
8580;SDS011;4328;48.622;9.230;2023-02-18T01:08:06;1.60;;;1.50;;
8580;SDS011;4328;48.622;9.230;2023-02-18T01:10:33;1.50;;;1.40;;
8580;SDS011;4328;48.622;9.230;2023-02-18T01:12:59;1.73;;;1.40;;
8580;SDS011;4328;48.622;9.230;2023-02-18T01:15:28;1.30;;;1.20;;
8580;SDS011;4328;48.622;9.230;2023-02-18T01:17:54;1.50;;;1.40;;
8580;SDS011;4328;48.622;9.230;2023-02-18T01:20:21;1.03;;;1.03;;
8580;SDS011;4328;48.622;9.230;2023-02-18T01:22:49;1.10;;;1.10;;
8580;SDS011;4328;48.622;9.230;2023-02-18T01:25:15;1.00;;;1.00;;
8580;SDS011;4328;48.622;9.230;2023-02-18T01:27:41;1.93;;;1.63;;
8580;SDS011;4328;48.622;9.230;2023-02-18T01:30:11;1.10;;;1.10;;
8580;SDS011;4328;48.622;9.230;2023-02-18T01:32:39;1.10;;;1.10;;
8580;SDS011;4328;48.622;9.230;2023-02-18T01:35:05;1.27;;;1.20;;
8580;SDS011;4328;48.622;9.230;2023-02-18T01:37:32;1.20;;;1.20;;
8580;SDS011;4328;48.622;9.230;2023-02-18T01:40:00;1.50;;;1.40;;
8580;SDS011;4328;48.622;9.230;2023-02-18T01:42:27;1.50;;;1.40;;
8580;SDS011;4328;48.622;9.230;2023-02-18T01:44:55;1.07;;;1.07;;
8580;SDS011;4328;48.622;9.230;2023-02-18T01:47:40;1.20;;;1.20;;
8580;SDS011;4328;48.622;9.230;2023-02-18T01:50:07;1.47;;;1.37;;
8580;SDS011;4328;48.622;9.230;2023-02-18T01:52:33;1.30;;;1.20;;
8580;SDS011;4328;48.622;9.230;2023-02-18T01:55:01;1.27;;;1.27;;
8580;SDS011;4328;48.622;9.230;2023-02-18T01:57:28;1.57;;;1.23;;
8580;SDS011;4328;48.622;9.230;2023-02-18T01:59:56;1.20;;;1.20;;
8580;SDS011;4328;48.622;9.230;2023-02-18T02:02:24;1.50;;;1.40;;
8580;SDS011;4328;48.622;9.230;2023-02-18T02:04:51;1.00;;;1.00;;
8580;SDS011;4328;48.622;9.230;2023-02-18T02:07:18;1.43;;;1.20;;
8580;SDS011;4328;48.622;9.230;2023-02-18T02:09:45;1.30;;;1.20;;
8580;SDS011;4328;48.622;9.230;2023-02-18T02:12:19;1.40;;;1.30;;
8580;SDS011;4328;48.622;9.230;2023-02-18T02:14:53;1.00;;;1.00;;
8580;SDS011;4328;48.622;9.230;2023-02-18T02:17:24;1.40;;;1.30;;
8580;SDS011;4328;48.622;9.230;2023-02-18T02:22:55;1.30;;;1.20;;
8580;SDS011;4328;48.622;9.230;2023-02-18T02:25:37;1.87;;;1.40;;
8580;SDS011;4328;48.622;9.230;2023-02-18T02:31:01;1.20;;;1.10;;
8580;SDS011;4328;48.622;9.230;2023-02-18T02:36:20;1.20;;;1.20;;
8580;SDS011;4328;48.622;9.230;2023-02-18T02:38:51;1.30;;;1.20;;
8580;SDS011;4328;48.622;9.230;2023-02-18T02:41:24;1.10;;;1.10;;
8580;SDS011;4328;48.622;9.230;2023-02-18T02:43:55;1.03;;;0.93;;
8580;SDS011;4328;48.622;9.230;2023-02-18T02:46:27;1.67;;;1.50;;
8580;SDS011;4328;48.622;9.230;2023-02-18T02:48:57;1.50;;;1.40;;
8580;SDS011;4328;48.622;9.230;2023-02-18T02:51:31;1.33;;;1.23;;
8580;SDS011;4328;48.622;9.230;2023-02-18T02:54:07;1.20;;;1.10;;
8580;SDS011;4328;48.622;9.230;2023-02-18T02:56:34;0.90;;;0.90;;
8580;SDS011;4328;48.622;9.230;2023-02-18T02:59:03;1.00;;;1.00;;
8580;SDS011;4328;48.622;9.230;2023-02-18T03:01:34;1.40;;;1.30;;
8580;SDS011;4328;48.622;9.230;2023-02-18T03:06:59;0.80;;;0.80;;
8580;SDS011;4328;48.622;9.230;2023-02-18T03:09:29;1.00;;;1.00;;
8580;SDS011;4328;48.622;9.230;2023-02-18T03:12:02;1.00;;;1.00;;
8580;SDS011;4328;48.622;9.230;2023-02-18T03:14:32;0.90;;;0.90;;
8580;SDS011;4328;48.622;9.230;2023-02-18T03:17:01;0.90;;;0.90;;
8580;SDS011;4328;48.622;9.230;2023-02-18T03:19:28;1.03;;;1.03;;
8580;SDS011;4328;48.622;9.230;2023-02-18T03:21:59;1.00;;;0.90;;
8580;SDS011;4328;48.622;9.230;2023-02-18T03:24:26;1.63;;;0.90;;
8580;SDS011;4328;48.622;9.230;2023-02-18T03:26:55;0.90;;;0.90;;
8580;SDS011;4328;48.622;9.230;2023-02-18T03:29:23;1.00;;;1.00;;
8580;SDS011;4328;48.622;9.230;2023-02-18T03:31:51;0.90;;;0.90;;
8580;SDS011;4328;48.622;9.230;2023-02-18T03:34:19;1.20;;;0.90;;
8580;SDS011;4328;48.622;9.230;2023-02-18T03:36:48;0.87;;;0.87;;
8580;SDS011;4328;48.622;9.230;2023-02-18T03:39:16;1.73;;;0.90;;
8580;SDS011;4328;48.622;9.230;2023-02-18T03:41:43;0.90;;;0.90;;
8580;SDS011;4328;48.622;9.230;2023-02-18T03:44:10;1.00;;;1.00;;
8580;SDS011;4328;48.622;9.230;2023-02-18T03:46:37;1.10;;;0.80;;
8580;SDS011;4328;48.622;9.230;2023-02-18T03:49:04;0.80;;;0.80;;
8580;SDS011;4328;48.622;9.230;2023-02-18T03:51:31;1.00;;;0.90;;
8580;SDS011;4328;48.622;9.230;2023-02-18T03:53:57;0.80;;;0.80;;
8580;SDS011;4328;48.622;9.230;2023-02-18T03:56:25;1.00;;;1.00;;
8580;SDS011;4328;48.622;9.230;2023-02-18T03:58:51;0.80;;;0.80;;
8580;SDS011;4328;48.622;9.230;2023-02-18T04:01:18;0.80;;;0.80;;
8580;SDS011;4328;48.622;9.230;2023-02-18T04:03:45;0.83;;;0.80;;
8580;SDS011;4328;48.622;9.230;2023-02-18T04:06:11;0.80;;;0.80;;
8580;SDS011;4328;48.622;9.230;2023-02-18T04:08:37;1.00;;;0.90;;
8580;SDS011;4328;48.622;9.230;2023-02-18T04:11:04;0.70;;;0.70;;
8580;SDS011;4328;48.622;9.230;2023-02-18T04:13:32;0.90;;;0.90;;
8580;SDS011;4328;48.622;9.230;2023-02-18T04:15:58;0.80;;;0.80;;
8580;SDS011;4328;48.622;9.230;2023-02-18T04:18:24;1.10;;;1.10;;
8580;SDS011;4328;48.622;9.230;2023-02-18T04:20:51;1.23;;;1.00;;
8580;SDS011;4328;48.622;9.230;2023-02-18T04:23:17;0.90;;;0.90;;
8580;SDS011;4328;48.622;9.230;2023-02-18T04:25:44;1.63;;;0.87;;
8580;SDS011;4328;48.622;9.230;2023-02-18T04:28:10;0.83;;;0.83;;
8580;SDS011;4328;48.622;9.230;2023-02-18T04:30:39;1.20;;;0.80;;
8580;SDS011;4328;48.622;9.230;2023-02-18T04:33:06;0.70;;;0.70;;
8580;SDS011;4328;48.622;9.230;2023-02-18T04:35:32;1.30;;;1.20;;
8580;SDS011;4328;48.622;9.230;2023-02-18T04:37:59;1.47;;;0.87;;
8580;SDS011;4328;48.622;9.230;2023-02-18T04:40:25;0.93;;;0.93;;
8580;SDS011;4328;48.622;9.230;2023-02-18T04:42:55;1.20;;;0.90;;
8580;SDS011;4328;48.622;9.230;2023-02-18T04:45:21;1.07;;;1.07;;
8580;SDS011;4328;48.622;9.230;2023-02-18T04:47:49;0.80;;;0.80;;
8580;SDS011;4328;48.622;9.230;2023-02-18T04:50:15;0.90;;;0.90;;
8580;SDS011;4328;48.622;9.230;2023-02-18T04:52:42;0.80;;;0.80;;
8580;SDS011;4328;48.622;9.230;2023-02-18T04:55:08;0.90;;;0.90;;
8580;SDS011;4328;48.622;9.230;2023-02-18T04:57:35;0.90;;;0.90;;
8580;SDS011;4328;48.622;9.230;2023-02-18T05:00:01;0.90;;;0.90;;
8580;SDS011;4328;48.622;9.230;2023-02-18T05:02:30;1.13;;;1.10;;
8580;SDS011;4328;48.622;9.230;2023-02-18T05:04:58;1.70;;;1.00;;
8580;SDS011;4328;48.622;9.230;2023-02-18T05:07:25;0.90;;;0.90;;
8580;SDS011;4328;48.622;9.230;2023-02-18T05:09:51;1.00;;;1.00;;
8580;SDS011;4328;48.622;9.230;2023-02-18T05:12:18;1.80;;;1.17;;
8580;SDS011;4328;48.622;9.230;2023-02-18T05:14:44;0.80;;;0.80;;
8580;SDS011;4328;48.622;9.230;2023-02-18T05:17:11;1.70;;;1.00;;
8580;SDS011;4328;48.622;9.230;2023-02-18T05:19:37;1.10;;;0.90;;
8580;SDS011;4328;48.622;9.230;2023-02-18T05:22:05;0.83;;;0.83;;
8580;SDS011;4328;48.622;9.230;2023-02-18T05:24:32;0.80;;;0.80;;
8580;SDS011;4328;48.622;9.230;2023-02-18T05:26:58;1.10;;;1.00;;
8580;SDS011;4328;48.622;9.230;2023-02-18T05:29:24;1.37;;;1.00;;
8580;SDS011;4328;48.622;9.230;2023-02-18T05:31:51;2.93;;;1.00;;
8580;SDS011;4328;48.622;9.230;2023-02-18T05:34:17;1.20;;;0.87;;
8580;SDS011;4328;48.622;9.230;2023-02-18T05:36:43;1.00;;;1.00;;
8580;SDS011;4328;48.622;9.230;2023-02-18T05:39:11;1.37;;;0.90;;
8580;SDS011;4328;48.622;9.230;2023-02-18T05:41:38;1.53;;;0.90;;
8580;SDS011;4328;48.622;9.230;2023-02-18T05:44:04;0.90;;;0.90;;
8580;SDS011;4328;48.622;9.230;2023-02-18T05:46:48;1.10;;;1.00;;
8580;SDS011;4328;48.622;9.230;2023-02-18T05:49:14;0.83;;;0.83;;
8580;SDS011;4328;48.622;9.230;2023-02-18T05:51:41;0.90;;;0.90;;
8580;SDS011;4328;48.622;9.230;2023-02-18T05:54:07;0.83;;;0.83;;
8580;SDS011;4328;48.622;9.230;2023-02-18T05:56:35;0.97;;;0.97;;
8580;SDS011;4328;48.622;9.230;2023-02-18T05:59:02;1.07;;;1.07;;
8580;SDS011;4328;48.622;9.230;2023-02-18T06:01:28;1.43;;;1.00;;
8580;SDS011;4328;48.622;9.230;2023-02-18T06:03:55;0.90;;;0.90;;
8580;SDS011;4328;48.622;9.230;2023-02-18T06:06:21;0.90;;;0.90;;
8580;SDS011;4328;48.622;9.230;2023-02-18T06:08:47;0.83;;;0.83;;
8580;SDS011;4328;48.622;9.230;2023-02-18T06:11:14;0.83;;;0.83;;
8580;SDS011;4328;48.622;9.230;2023-02-18T06:13:42;1.10;;;1.10;;
8580;SDS011;4328;48.622;9.230;2023-02-18T06:16:08;1.00;;;1.00;;
8580;SDS011;4328;48.622;9.230;2023-02-18T06:18:34;1.10;;;1.00;;
8580;SDS011;4328;48.622;9.230;2023-02-18T06:21:01;1.23;;;1.20;;
8580;SDS011;4328;48.622;9.230;2023-02-18T06:23:27;1.10;;;1.00;;
8580;SDS011;4328;48.622;9.230;2023-02-18T06:25:54;1.00;;;1.00;;
8580;SDS011;4328;48.622;9.230;2023-02-18T06:28:20;1.00;;;1.00;;
8580;SDS011;4328;48.622;9.230;2023-02-18T06:30:48;0.90;;;0.90;;
8580;SDS011;4328;48.622;9.230;2023-02-18T06:33:15;1.07;;;1.07;;
8580;SDS011;4328;48.622;9.230;2023-02-18T06:35:41;0.90;;;0.90;;
8580;SDS011;4328;48.622;9.230;2023-02-18T06:38:07;1.10;;;1.10;;
8580;SDS011;4328;48.622;9.230;2023-02-18T06:40:36;0.80;;;0.80;;
8580;SDS011;4328;48.622;9.230;2023-02-18T06:43:03;0.87;;;0.87;;
8580;SDS011;4328;48.622;9.230;2023-02-18T06:45:29;2.07;;;0.93;;
8580;SDS011;4328;48.622;9.230;2023-02-18T06:47:57;1.03;;;1.03;;
8580;SDS011;4328;48.622;9.230;2023-02-18T06:50:23;1.20;;;1.10;;
8580;SDS011;4328;48.622;9.230;2023-02-18T06:52:50;1.00;;;1.00;;
8580;SDS011;4328;48.622;9.230;2023-02-18T06:55:16;0.90;;;0.90;;
8580;SDS011;4328;48.622;9.230;2023-02-18T06:57:43;1.03;;;0.97;;
8580;SDS011;4328;48.622;9.230;2023-02-18T07:00:09;1.00;;;1.00;;
8580;SDS011;4328;48.622;9.230;2023-02-18T07:02:36;2.30;;;1.17;;
8580;SDS011;4328;48.622;9.230;2023-02-18T07:05:04;2.07;;;1.07;;
8580;SDS011;4328;48.622;9.230;2023-02-18T07:07:30;3.63;;;2.80;;
8580;SDS011;4328;48.622;9.230;2023-02-18T07:09:57;3.47;;;2.67;;
8580;SDS011;4328;48.622;9.230;2023-02-18T07:12:23;3.83;;;3.40;;
8580;SDS011;4328;48.622;9.230;2023-02-18T07:14:49;9.57;;;7.53;;
8580;SDS011;4328;48.622;9.230;2023-02-18T07:17:16;7.53;;;6.37;;
8580;SDS011;4328;48.622;9.230;2023-02-18T07:19:43;1.63;;;1.50;;
8580;SDS011;4328;48.622;9.230;2023-02-18T07:22:10;1.77;;;1.67;;
8580;SDS011;4328;48.622;9.230;2023-02-18T07:24:37;2.73;;;2.33;;
8580;SDS011;4328;48.622;9.230;2023-02-18T07:27:03;2.43;;;1.67;;
8580;SDS011;4328;48.622;9.230;2023-02-18T07:29:30;1.30;;;1.20;;
8580;SDS011;4328;48.622;9.230;2023-02-18T07:31:56;1.00;;;1.00;;
8580;SDS011;4328;48.622;9.230;2023-02-18T07:34:22;1.10;;;1.00;;
8580;SDS011;4328;48.622;9.230;2023-02-18T07:36:49;1.00;;;1.00;;
8580;SDS011;4328;48.622;9.230;2023-02-18T07:39:17;0.90;;;0.90;;
8580;SDS011;4328;48.622;9.230;2023-02-18T07:41:45;0.97;;;0.97;;
8580;SDS011;4328;48.622;9.230;2023-02-18T07:44:11;1.03;;;1.03;;
8580;SDS011;4328;48.622;9.230;2023-02-18T07:46:38;1.30;;;1.20;;
8580;SDS011;4328;48.622;9.230;2023-02-18T07:49:04;1.10;;;1.10;;
8580;SDS011;4328;48.622;9.230;2023-02-18T07:51:31;1.40;;;1.30;;
8580;SDS011;4328;48.622;9.230;2023-02-18T07:53:57;0.90;;;0.90;;
8580;SDS011;4328;48.622;9.230;2023-02-18T07:56:25;1.10;;;1.00;;
8580;SDS011;4328;48.622;9.230;2023-02-18T07:58:51;1.00;;;1.00;;
8580;SDS011;4328;48.622;9.230;2023-02-18T08:01:18;1.00;;;1.00;;
8580;SDS011;4328;48.622;9.230;2023-02-18T08:03:44;1.03;;;1.03;;
8580;SDS011;4328;48.622;9.230;2023-02-18T08:06:16;1.30;;;1.20;;
8580;SDS011;4328;48.622;9.230;2023-02-18T08:08:45;1.00;;;1.00;;
8580;SDS011;4328;48.622;9.230;2023-02-18T08:11:11;1.20;;;1.10;;
8580;SDS011;4328;48.622;9.230;2023-02-18T08:13:39;1.20;;;1.10;;
8580;SDS011;4328;48.622;9.230;2023-02-18T08:16:06;1.40;;;1.30;;
8580;SDS011;4328;48.622;9.230;2023-02-18T08:18:32;1.20;;;1.13;;
8580;SDS011;4328;48.622;9.230;2023-02-18T08:20:58;1.30;;;1.20;;
8580;SDS011;4328;48.622;9.230;2023-02-18T08:23:25;1.50;;;1.10;;
8580;SDS011;4328;48.622;9.230;2023-02-18T08:25:51;0.90;;;0.90;;
8580;SDS011;4328;48.622;9.230;2023-02-18T08:28:18;1.20;;;1.10;;
8580;SDS011;4328;48.622;9.230;2023-02-18T08:30:47;1.20;;;1.10;;
8580;SDS011;4328;48.622;9.230;2023-02-18T08:33:14;1.23;;;1.13;;
8580;SDS011;4328;48.622;9.230;2023-02-18T08:35:41;1.47;;;1.00;;
8580;SDS011;4328;48.622;9.230;2023-02-18T08:38:07;1.13;;;1.00;;
8580;SDS011;4328;48.622;9.230;2023-02-18T08:40:37;1.00;;;1.00;;
8580;SDS011;4328;48.622;9.230;2023-02-18T08:43:04;0.93;;;0.93;;
8580;SDS011;4328;48.622;9.230;2023-02-18T08:45:31;1.03;;;1.03;;
8580;SDS011;4328;48.622;9.230;2023-02-18T08:47:59;1.10;;;1.10;;
8580;SDS011;4328;48.622;9.230;2023-02-18T08:50:26;1.10;;;1.10;;
8580;SDS011;4328;48.622;9.230;2023-02-18T08:52:52;1.00;;;1.00;;
8580;SDS011;4328;48.622;9.230;2023-02-18T08:55:19;1.23;;;1.13;;
8580;SDS011;4328;48.622;9.230;2023-02-18T08:57:45;1.00;;;1.00;;
8580;SDS011;4328;48.622;9.230;2023-02-18T09:00:12;1.00;;;1.00;;
8580;SDS011;4328;48.622;9.230;2023-02-18T09:02:39;1.00;;;1.00;;
8580;SDS011;4328;48.622;9.230;2023-02-18T09:05:07;1.10;;;1.10;;
8580;SDS011;4328;48.622;9.230;2023-02-18T09:07:34;1.30;;;1.20;;
8580;SDS011;4328;48.622;9.230;2023-02-18T09:10:00;1.10;;;1.10;;
8580;SDS011;4328;48.622;9.230;2023-02-18T09:12:29;1.27;;;1.17;;
8580;SDS011;4328;48.622;9.230;2023-02-18T09:14:55;1.03;;;0.93;;
8580;SDS011;4328;48.622;9.230;2023-02-18T09:17:22;1.00;;;1.00;;
8580;SDS011;4328;48.622;9.230;2023-02-18T09:19:48;0.93;;;0.93;;
8580;SDS011;4328;48.622;9.230;2023-02-18T09:22:16;1.00;;;1.00;;
8580;SDS011;4328;48.622;9.230;2023-02-18T09:24:43;1.27;;;1.17;;
8580;SDS011;4328;48.622;9.230;2023-02-18T09:27:09;1.27;;;1.17;;
8580;SDS011;4328;48.622;9.230;2023-02-18T09:29:36;1.63;;;1.10;;
8580;SDS011;4328;48.622;9.230;2023-02-18T09:32:03;1.10;;;1.10;;
8580;SDS011;4328;48.622;9.230;2023-02-18T09:34:29;1.53;;;1.20;;
8580;SDS011;4328;48.622;9.230;2023-02-18T09:36:56;0.90;;;0.90;;
8580;SDS011;4328;48.622;9.230;2023-02-18T09:39:23;1.37;;;0.80;;
8580;SDS011;4328;48.622;9.230;2023-02-18T09:41:51;1.10;;;1.00;;
8580;SDS011;4328;48.622;9.230;2023-02-18T09:44:19;0.80;;;0.80;;
8580;SDS011;4328;48.622;9.230;2023-02-18T09:46:47;1.03;;;1.00;;
8580;SDS011;4328;48.622;9.230;2023-02-18T09:49:15;2.63;;;0.90;;
8580;SDS011;4328;48.622;9.230;2023-02-18T09:51:42;0.80;;;0.80;;
8580;SDS011;4328;48.622;9.230;2023-02-18T09:54:09;0.90;;;0.90;;
8580;SDS011;4328;48.622;9.230;2023-02-18T09:56:40;1.13;;;1.03;;
8580;SDS011;4328;48.622;9.230;2023-02-18T09:59:08;0.93;;;0.70;;
8580;SDS011;4328;48.622;9.230;2023-02-18T10:01:37;1.20;;;1.10;;
8580;SDS011;4328;48.622;9.230;2023-02-18T10:04:05;1.17;;;0.87;;
8580;SDS011;4328;48.622;9.230;2023-02-18T10:06:35;1.27;;;1.00;;
8580;SDS011;4328;48.622;9.230;2023-02-18T10:09:02;0.80;;;0.80;;
8580;SDS011;4328;48.622;9.230;2023-02-18T10:11:30;0.70;;;0.70;;
8580;SDS011;4328;48.622;9.230;2023-02-18T10:13:58;1.00;;;1.00;;
8580;SDS011;4328;48.622;9.230;2023-02-18T10:16:27;0.63;;;0.63;;
8580;SDS011;4328;48.622;9.230;2023-02-18T10:18:54;0.90;;;0.60;;
8580;SDS011;4328;48.622;9.230;2023-02-18T10:21:23;1.23;;;0.80;;
8580;SDS011;4328;48.622;9.230;2023-02-18T10:23:52;0.60;;;0.60;;
8580;SDS011;4328;48.622;9.230;2023-02-18T10:26:19;0.80;;;0.80;;
8580;SDS011;4328;48.622;9.230;2023-02-18T10:28:46;1.27;;;0.80;;
8580;SDS011;4328;48.622;9.230;2023-02-18T10:37:18;2.00;;;0.90;;
8580;SDS011;4328;48.622;9.230;2023-02-18T10:39:51;0.87;;;0.87;;
8580;SDS011;4328;48.622;9.230;2023-02-18T10:42:21;0.80;;;0.80;;
8580;SDS011;4328;48.622;9.230;2023-02-18T10:44:51;3.23;;;0.80;;
8580;SDS011;4328;48.622;9.230;2023-02-18T10:47:22;0.90;;;0.80;;
8580;SDS011;4328;48.622;9.230;2023-02-18T10:49:56;1.80;;;0.87;;
8580;SDS011;4328;48.622;9.230;2023-02-18T10:52:25;1.50;;;0.80;;
8580;SDS011;4328;48.622;9.230;2023-02-18T10:54:56;0.70;;;0.70;;
8580;SDS011;4328;48.622;9.230;2023-02-18T10:57:23;0.80;;;0.80;;
8580;SDS011;4328;48.622;9.230;2023-02-18T10:59:54;0.90;;;0.73;;
8580;SDS011;4328;48.622;9.230;2023-02-18T11:02:22;0.70;;;0.70;;
8580;SDS011;4328;48.622;9.230;2023-02-18T11:04:49;1.10;;;1.00;;
8580;SDS011;4328;48.622;9.230;2023-02-18T11:07:18;0.70;;;0.70;;
8580;SDS011;4328;48.622;9.230;2023-02-18T11:09:47;0.80;;;0.80;;
8580;SDS011;4328;48.622;9.230;2023-02-18T11:12:14;2.07;;;0.70;;
8580;SDS011;4328;48.622;9.230;2023-02-18T11:14:46;2.63;;;0.80;;
8580;SDS011;4328;48.622;9.230;2023-02-18T11:17:18;0.90;;;0.90;;
8580;SDS011;4328;48.622;9.230;2023-02-18T11:19:50;0.83;;;0.83;;
8580;SDS011;4328;48.622;9.230;2023-02-18T11:22:18;1.00;;;0.90;;
8580;SDS011;4328;48.622;9.230;2023-02-18T11:24:44;1.77;;;0.87;;
8580;SDS011;4328;48.622;9.230;2023-02-18T11:27:19;1.63;;;0.90;;
8580;SDS011;4328;48.622;9.230;2023-02-18T11:29:47;0.90;;;0.70;;
8580;SDS011;4328;48.622;9.230;2023-02-18T11:32:14;0.70;;;0.70;;
8580;SDS011;4328;48.622;9.230;2023-02-18T11:34:41;1.17;;;0.87;;
8580;SDS011;4328;48.622;9.230;2023-02-18T11:37:10;1.27;;;0.70;;
8580;SDS011;4328;48.622;9.230;2023-02-18T11:39:37;1.37;;;0.90;;
8580;SDS011;4328;48.622;9.230;2023-02-18T11:42:07;0.77;;;0.77;;
8580;SDS011;4328;48.622;9.230;2023-02-18T11:44:40;0.70;;;0.70;;
8580;SDS011;4328;48.622;9.230;2023-02-18T11:47:18;0.90;;;0.90;;
8580;SDS011;4328;48.622;9.230;2023-02-18T11:49:58;0.80;;;0.80;;
8580;SDS011;4328;48.622;9.230;2023-02-18T11:52:25;1.23;;;0.93;;
8580;SDS011;4328;48.622;9.230;2023-02-18T11:54:58;1.00;;;1.00;;
8580;SDS011;4328;48.622;9.230;2023-02-18T11:57:24;0.80;;;0.80;;
8580;SDS011;4328;48.622;9.230;2023-02-18T11:59:53;0.70;;;0.70;;
8580;SDS011;4328;48.622;9.230;2023-02-18T12:02:24;0.80;;;0.80;;
8580;SDS011;4328;48.622;9.230;2023-02-18T12:04:55;0.60;;;0.60;;
8580;SDS011;4328;48.622;9.230;2023-02-18T12:07:24;0.70;;;0.70;;
8580;SDS011;4328;48.622;9.230;2023-02-18T12:09:52;0.50;;;0.50;;
8580;SDS011;4328;48.622;9.230;2023-02-18T12:12:23;0.70;;;0.70;;
8580;SDS011;4328;48.622;9.230;2023-02-18T12:14:50;0.70;;;0.70;;
8580;SDS011;4328;48.622;9.230;2023-02-18T12:20:18;1.27;;;0.73;;
8580;SDS011;4328;48.622;9.230;2023-02-18T12:22:48;0.70;;;0.70;;
8580;SDS011;4328;48.622;9.230;2023-02-18T12:25:24;1.30;;;0.80;;
8580;SDS011;4328;48.622;9.230;2023-02-18T12:27:54;0.70;;;0.70;;
8580;SDS011;4328;48.622;9.230;2023-02-18T12:30:28;0.70;;;0.70;;
8580;SDS011;4328;48.622;9.230;2023-02-18T12:32:59;0.73;;;0.73;;
8580;SDS011;4328;48.622;9.230;2023-02-18T12:35:34;0.82;;;0.80;;
8580;SDS011;4328;48.622;9.230;2023-02-18T12:38:05;1.00;;;0.83;;
8580;SDS011;4328;48.622;9.230;2023-02-18T12:40:39;0.70;;;0.70;;
8580;SDS011;4328;48.622;9.230;2023-02-18T12:43:11;0.80;;;0.80;;
8580;SDS011;4328;48.622;9.230;2023-02-18T12:45:51;0.80;;;0.80;;
8580;SDS011;4328;48.622;9.230;2023-02-18T12:48:37;1.23;;;0.80;;
8580;SDS011;4328;48.622;9.230;2023-02-18T12:51:09;0.90;;;0.90;;
8580;SDS011;4328;48.622;9.230;2023-02-18T12:53:43;2.00;;;1.17;;
8580;SDS011;4328;48.622;9.230;2023-02-18T12:56:22;1.07;;;0.80;;
8580;SDS011;4328;48.622;9.230;2023-02-18T12:58:54;1.57;;;0.90;;
8580;SDS011;4328;48.622;9.230;2023-02-18T13:01:24;0.63;;;0.63;;
8580;SDS011;4328;48.622;9.230;2023-02-18T13:03:59;0.70;;;0.70;;
8580;SDS011;4328;48.622;9.230;2023-02-18T13:06:40;0.80;;;0.80;;
8580;SDS011;4328;48.622;9.230;2023-02-18T13:09:08;0.60;;;0.60;;
8580;SDS011;4328;48.622;9.230;2023-02-18T13:11:42;1.27;;;0.90;;
8580;SDS011;4328;48.622;9.230;2023-02-18T13:14:13;1.23;;;0.87;;
8580;SDS011;4328;48.622;9.230;2023-02-18T13:16:41;1.10;;;1.00;;
8580;SDS011;4328;48.622;9.230;2023-02-18T13:19:13;1.00;;;1.00;;
8580;SDS011;4328;48.622;9.230;2023-02-18T13:21:43;1.03;;;1.03;;
8580;SDS011;4328;48.622;9.230;2023-02-18T13:24:11;2.03;;;1.03;;
8580;SDS011;4328;48.622;9.230;2023-02-18T13:26:38;1.00;;;1.00;;
8580;SDS011;4328;48.622;9.230;2023-02-18T13:29:08;0.90;;;0.90;;
8580;SDS011;4328;48.622;9.230;2023-02-18T13:31:41;1.07;;;1.00;;
8580;SDS011;4328;48.622;9.230;2023-02-18T13:34:14;0.90;;;0.90;;
8580;SDS011;4328;48.622;9.230;2023-02-18T13:36:49;1.03;;;0.90;;
8580;SDS011;4328;48.622;9.230;2023-02-18T13:39:17;1.20;;;1.17;;
8580;SDS011;4328;48.622;9.230;2023-02-18T13:41:45;0.90;;;0.90;;
8580;SDS011;4328;48.622;9.230;2023-02-18T13:46:54;0.97;;;0.90;;
8580;SDS011;4328;48.622;9.230;2023-02-18T13:49:21;1.10;;;1.00;;
8580;SDS011;4328;48.622;9.230;2023-02-18T13:51:50;1.00;;;1.00;;
8580;SDS011;4328;48.622;9.230;2023-02-18T13:54:18;1.23;;;1.13;;
8580;SDS011;4328;48.622;9.230;2023-02-18T13:56:49;0.90;;;0.90;;
8580;SDS011;4328;48.622;9.230;2023-02-18T13:59:16;1.30;;;1.20;;
8580;SDS011;4328;48.622;9.230;2023-02-18T14:01:44;1.20;;;1.10;;
8580;SDS011;4328;48.622;9.230;2023-02-18T14:09:42;0.90;;;0.80;;
8580;SDS011;4328;48.622;9.230;2023-02-18T14:12:26;0.90;;;0.90;;
8580;SDS011;4328;48.622;9.230;2023-02-18T14:15:00;1.20;;;1.10;;
8580;SDS011;4328;48.622;9.230;2023-02-18T14:17:32;1.43;;;1.00;;
8580;SDS011;4328;48.622;9.230;2023-02-18T14:22:56;1.57;;;1.00;;
8580;SDS011;4328;48.622;9.230;2023-02-18T14:25:26;2.03;;;1.20;;
8580;SDS011;4328;48.622;9.230;2023-02-18T14:28:00;1.23;;;1.13;;
8580;SDS011;4328;48.622;9.230;2023-02-18T14:30:28;1.13;;;1.10;;
8580;SDS011;4328;48.622;9.230;2023-02-18T14:32:57;1.00;;;1.00;;
8580;SDS011;4328;48.622;9.230;2023-02-18T14:35:25;0.90;;;0.90;;
8580;SDS011;4328;48.622;9.230;2023-02-18T14:38:05;1.20;;;1.20;;
8580;SDS011;4328;48.622;9.230;2023-02-18T14:40:42;0.97;;;0.97;;
8580;SDS011;4328;48.622;9.230;2023-02-18T14:43:17;1.47;;;1.00;;
8580;SDS011;4328;48.622;9.230;2023-02-18T14:46:02;1.10;;;1.00;;
8580;SDS011;4328;48.622;9.230;2023-02-18T14:48:42;1.00;;;1.00;;
8580;SDS011;4328;48.622;9.230;2023-02-18T14:51:13;1.30;;;1.20;;
8580;SDS011;4328;48.622;9.230;2023-02-18T14:53:41;1.10;;;1.10;;
8580;SDS011;4328;48.622;9.230;2023-02-18T14:56:09;0.70;;;0.70;;
8580;SDS011;4328;48.622;9.230;2023-02-18T14:58:39;1.20;;;1.10;;
8580;SDS011;4328;48.622;9.230;2023-02-18T15:01:12;1.10;;;1.10;;
8580;SDS011;4328;48.622;9.230;2023-02-18T15:03:41;1.47;;;1.00;;
8580;SDS011;4328;48.622;9.230;2023-02-18T15:06:20;1.10;;;1.10;;
8580;SDS011;4328;48.622;9.230;2023-02-18T15:08:46;1.07;;;1.00;;
8580;SDS011;4328;48.622;9.230;2023-02-18T15:11:14;1.30;;;1.00;;
8580;SDS011;4328;48.622;9.230;2023-02-18T15:13:42;1.17;;;1.07;;
8580;SDS011;4328;48.622;9.230;2023-02-18T15:16:11;0.90;;;0.90;;
8580;SDS011;4328;48.622;9.230;2023-02-18T15:18:39;1.00;;;1.00;;
8580;SDS011;4328;48.622;9.230;2023-02-18T15:21:06;1.00;;;1.00;;
8580;SDS011;4328;48.622;9.230;2023-02-18T15:23:34;0.93;;;0.90;;
8580;SDS011;4328;48.622;9.230;2023-02-18T15:26:01;0.90;;;0.90;;
8580;SDS011;4328;48.622;9.230;2023-02-18T15:28:29;1.00;;;1.00;;
8580;SDS011;4328;48.622;9.230;2023-02-18T15:30:57;1.07;;;0.90;;
8580;SDS011;4328;48.622;9.230;2023-02-18T15:33:24;1.10;;;1.00;;
8580;SDS011;4328;48.622;9.230;2023-02-18T15:35:51;1.10;;;1.00;;
8580;SDS011;4328;48.622;9.230;2023-02-18T15:38:18;1.13;;;1.13;;
8580;SDS011;4328;48.622;9.230;2023-02-18T15:40:46;1.00;;;0.90;;
8580;SDS011;4328;48.622;9.230;2023-02-18T15:43:14;1.97;;;0.90;;
8580;SDS011;4328;48.622;9.230;2023-02-18T15:45:42;1.73;;;1.13;;
8580;SDS011;4328;48.622;9.230;2023-02-18T15:48:12;1.00;;;1.00;;
8580;SDS011;4328;48.622;9.230;2023-02-18T15:50:47;1.00;;;1.00;;
8580;SDS011;4328;48.622;9.230;2023-02-18T15:53:15;1.00;;;1.00;;
8580;SDS011;4328;48.622;9.230;2023-02-18T15:55:43;1.20;;;1.10;;